Sacramento, California
Traffic Map
Current Weather Conditions
Sacramento, California
Clear
Clear
59°
Feels Like: 59°
Wind Chill: 59° Ceiling: Unl
Heat Index: 59° Visibility: 10mi
Dew Point: 49° Wind: 0mph
Humidity: 69% Direction: ° ()
Pressure: 29.88in Gusts: 0mph
Raw Report DataKSAC 271153Z 00000KT 10SM CLR 15/09 A2988 RMK AO2 SLP117 T01500094 10222 20150 55003
Traffic Incident Summary
Active as of:
Severity:
Category:
InformationThere was an issue retrieving the traffic information for this location. Please try a different location or try again shortly.
Advertisements
Track Severe Weather on mobile